Time;durP1;ratioP1;P1;durP2;ratioP2;P2;SDS_P1;SDS_P2;PMS_P1;PMS_P2;Temp;Humidity;BMP_temperature;BMP_pressure;BME280_temperature;BME280_humidity;BME280_pressure;Samples;Min_cycle;Max_cycle;Signal;HPM_P1;HPM_P2
2022/10/27 00:00:52;;;;;;;37.17;19.55;;;;;;;11.11;100.00;99632.19;4338674;33;20426;-75
2022/10/27 00:03:33;;;;;;;37.08;19.30;;;;;;;10.80;100.00;99595.69;4337724;33;20054;-74
2022/10/27 00:06:04;;;;;;;33.55;17.87;;;;;;;10.95;100.00;99619.47;4336971;33;20054;-74
2022/10/27 00:08:31;;;;;;;37.15;19.08;;;;;;;10.98;100.00;99629.78;4338758;33;20409;-74
2022/10/27 00:10:59;;;;;;;34.72;19.20;;;;;;;10.80;100.00;99623.47;4338589;32;20384;-75
2022/10/27 00:13:26;;;;;;;37.70;20.27;;;;;;;10.75;100.00;99642.19;4338144;33;20040;-76
2022/10/27 00:16:01;;;;;;;38.00;20.10;;;;;;;10.98;100.00;99645.94;4336987;33;20058;-75
2022/10/27 00:18:28;;;;;;;32.28;17.85;;;;;;;10.95;100.00;99624.84;4309670;33;20386;-75
2022/10/27 00:21:06;;;;;;;32.22;18.02;;;;;;;10.89;100.00;99611.25;4308311;33;20362;-76
2022/10/27 00:23:33;;;;;;;35.25;18.52;;;;;;;11.09;100.00;99647.78;4306687;33;20091;-75
2022/10/27 00:26:00;;;;;;;37.72;19.87;;;;;;;10.77;100.00;99607.78;4309833;33;20542;-75
2022/10/27 00:28:27;;;;;;;32.92;18.45;;;;;;;10.99;100.00;99637.63;4308897;33;20147;-75
2022/10/27 00:30:59;;;;;;;30.98;19.80;;;;;;;10.93;100.00;99637.72;4309605;33;20029;-75
2022/10/27 00:33:26;;;;;;;36.28;19.15;;;;;;;10.97;100.00;99642.41;4307199;33;20479;-75
2022/10/27 00:35:52;;;;;;;36.88;19.40;;;;;;;10.96;100.00;99638.09;4309073;33;20048;-75
2022/10/27 00:38:25;;;;;;;35.15;19.77;;;;;;;10.82;100.00;99615.16;4309120;33;20379;-74
2022/10/27 00:40:52;;;;;;;38.75;20.20;;;;;;;10.69;100.00;99602.72;4309568;33;20418;-74
2022/10/27 00:43:36;;;;;;;34.58;18.40;;;;;;;10.58;100.00;99598.19;4307830;33;20044;-75
2022/10/27 00:46:19;;;;;;;39.25;19.02;;;;;;;10.84;100.00;99640.78;4294311;33;20067;-75
2022/10/27 00:48:48;;;;;;;29.23;18.45;;;;;;;10.87;100.00;99651.09;4294771;33;20366;-75
2022/10/27 00:51:17;;;;;;;33.25;18.92;;;;;;;10.83;100.00;99651.78;4293260;33;20404;-76
2022/10/27 00:53:46;;;;;;;36.63;18.35;;;;;;;10.62;100.00;99610.13;4294219;33;20057;-75
2022/10/27 00:56:13;;;;;;;32.75;19.15;;;;;;;10.69;100.00;99611.66;4311065;33;20175;-75
2022/10/27 00:58:40;;;;;;;41.22;19.50;;;;;;;10.88;100.00;99646.50;4320946;33;20061;-76
2022/10/27 01:01:06;;;;;;;33.03;18.87;;;;;;;10.69;100.00;99648.50;4323821;33;20604;-75
2022/10/27 01:03:33;;;;;;;40.10;22.92;;;;;;;10.95;100.00;99651.78;4319890;33;20048;-75
2022/10/27 01:06:00;;;;;;;41.33;21.55;;;;;;;10.85;100.00;99628.97;4322969;33;20032;-74
2022/10/27 01:08:26;;;;;;;42.50;22.50;;;;;;;11.15;100.00;99662.97;4323198;33;20588;-74
2022/10/27 01:10:53;;;;;;;35.42;20.65;;;;;;;11.29;100.00;99654.62;4322597;33;20024;-74
2022/10/27 01:13:20;;;;;;;36.00;16.92;;;;;;;11.26;100.00;99651.37;4320486;33;20070;-76
2022/10/27 01:15:58;;;;;;;30.37;18.27;;;;;;;11.06;100.00;99621.31;4313324;33;20080;-74
2022/10/27 01:18:31;;;;;;;34.17;16.67;;;;;;;11.43;100.00;99654.12;4325045;33;20062;-75
2022/10/27 01:21:00;;;;;;;;;;;;;;;11.65;100.00;99650.75;4325086;33;20054;-75
2022/10/27 01:23:48;;;;;;;29.63;15.75;;;;;;;11.48;100.00;99650.69;4323833;33;20373;-75
2022/10/27 01:26:39;;;;;;;30.83;16.08;;;;;;;11.31;100.00;99663.31;4325599;33;20419;-75
2022/10/27 01:29:30;;;;;;;27.15;15.80;;;;;;;11.21;100.00;99624.28;4318332;33;20070;-75
2022/10/27 01:32:11;;;;;;;26.48;14.85;;;;;;;11.40;100.00;99659.19;4322053;33;20079;-76
2022/10/27 01:34:54;;;;;;;30.27;16.12;;;;;;;11.51;100.00;99661.00;4323480;33;20049;-74
2022/10/27 01:37:37;;;;;;;32.97;15.15;;;;;;;11.20;100.00;99617.28;4293201;33;20067;-75
2022/10/27 01:40:07;;;;;;;24.77;15.65;;;;;;;11.29;100.00;99615.00;4293295;33;20067;-75
2022/10/27 01:42:48;;;;;;;30.55;17.23;;;;;;;11.22;100.00;99649.38;4278536;33;20029;-74
2022/10/27 01:45:20;;;;;;;29.95;15.82;;;;;;;11.46;100.00;99658.22;4279401;33;20112;-75
2022/10/27 01:47:47;;;;;;;33.80;16.20;;;;;;;11.41;100.00;99628.47;4279721;33;20085;-74
2022/10/27 01:50:18;;;;;;;33.00;16.75;;;;;;;11.41;100.00;99618.50;4279869;33;20495;-75
2022/10/27 01:52:48;;;;;;;29.45;15.20;;;;;;;11.61;100.00;99655.78;4278582;33;20077;-77
2022/10/27 01:55:37;;;;;;;31.00;15.43;;;;;;;11.42;100.00;99630.94;4277166;33;20056;-74
2022/10/27 01:58:19;;;;;;;30.33;14.93;;;;;;;11.56;100.00;99657.59;4256734;33;20049;-75
2022/10/27 02:00:59;;;;;;;29.92;15.45;;;;;;;11.52;100.00;99661.81;4287643;33;20045;-75
2022/10/27 02:03:42;;;;;;;29.20;16.95;;;;;;;11.25;100.00;99619.25;4301580;33;20524;-75
2022/10/27 02:06:12;;;;;;;32.15;16.20;;;;;;;11.52;100.00;99651.88;4276464;33;20064;-76
2022/10/27 02:08:45;;;;;;;31.15;17.37;;;;;;;11.51;100.00;99655.63;4287814;33;20187;-75
2022/10/27 02:11:12;;;;;;;31.17;14.70;;;;;;;11.20;100.00;99616.44;4294452;33;20386;-74
2022/10/27 02:13:42;;;;;;;31.48;16.73;;;;;;;11.27;100.00;99649.50;4309193;33;20339;-76
2022/10/27 02:16:14;;;;;;;33.47;16.85;;;;;;;11.33;100.00;99658.47;4338682;33;20060;-76
2022/10/27 02:18:48;;;;;;;30.95;17.25;;;;;;;11.30;100.00;99637.41;4341873;33;20434;-77
2022/10/27 02:21:15;;;;;;;31.33;16.33;;;;;;;11.42;100.00;99667.84;4343048;33;20062;-76
2022/10/27 02:23:42;;;;;;;41.33;17.30;;;;;;;11.35;100.00;99618.63;4341897;33;20048;-77
2022/10/27 02:26:21;;;;;;;33.72;17.95;;;;;;;11.63;100.00;99663.66;4341953;33;20052;-76
2022/10/27 02:29:25;;;;;;;28.67;16.05;;;;;;;11.41;100.00;99667.03;4340862;33;20044;-76
2022/10/27 02:31:55;;;;;;;33.20;16.40;;;;;;;11.41;100.00;99655.44;4341336;33;20055;-75
2022/10/27 02:34:24;;;;;;;28.70;16.12;;;;;;;11.19;100.00;99664.16;4342218;33;20040;-75
2022/10/27 02:36:50;;;;;;;27.33;15.85;;;;;;;11.24;100.00;99660.75;4341161;33;20055;-75
2022/10/27 02:39:16;;;;;;;44.33;16.27;;;;;;;11.12;100.00;99674.25;4340642;33;20073;-76
2022/10/27 02:41:43;;;;;;;28.15;15.63;;;;;;;11.23;100.00;99670.72;4339470;33;20442;-75
2022/10/27 02:44:09;;;;;;;25.12;15.90;;;;;;;11.19;100.00;99634.50;4320346;33;20041;-74
2022/10/27 02:46:36;;;;;;;31.25;17.33;;;;;;;11.28;100.00;99634.97;4324612;33;20048;-75
2022/10/27 02:49:03;;;;;;;40.40;16.60;;;;;;;11.51;100.00;99661.00;4325511;33;20065;-75
2022/10/27 02:51:29;;;;;;;31.33;16.70;;;;;;;11.51;100.00;99665.59;4321793;33;20366;-75
2022/10/27 02:53:55;;;;;;;32.35;16.33;;;;;;;11.15;100.00;99636.03;4325280;33;20094;-74
2022/10/27 02:56:22;;;;;;;42.05;16.27;;;;;;;11.47;100.00;99675.22;4324569;33;20058;-75
2022/10/27 02:58:49;;;;;;;26.20;15.50;;;;;;;11.11;100.00;99667.22;4324600;33;20057;-74
2022/10/27 03:01:15;;;;;;;25.62;15.07;;;;;;;10.89;100.00;99669.72;4323661;33;20055;-76
2022/10/27 03:03:42;;;;;;;36.10;16.30;;;;;;;10.83;100.00;99660.72;4321673;33;20066;-74
2022/10/27 03:06:08;;;;;;;25.77;15.23;;;;;;;10.79;100.00;99624.50;4310677;33;20052;-75
2022/10/27 03:08:34;;;;;;;28.05;15.25;;;;;;;11.11;100.00;99655.63;4321776;33;20171;-75
2022/10/27 03:11:01;;;;;;;32.15;13.18;;;;;;;11.02;100.00;99625.53;4324866;33;20043;-74
2022/10/27 03:13:27;;;;;;;22.85;13.95;;;;;;;11.43;100.00;99647.91;4321731;33;20075;-75
2022/10/27 03:15:53;;;;;;;26.30;13.52;;;;;;;11.58;100.00;99664.41;4324986;33;20068;-74
2022/10/27 03:18:20;;;;;;;25.37;15.25;;;;;;;11.48;100.00;99661.47;4296124;33;20037;-74
2022/10/27 03:20:46;;;;;;;29.75;15.77;;;;;;;11.22;100.00;99663.69;4298454;33;20378;-74
2022/10/27 03:23:13;;;;;;;33.17;15.77;;;;;;;10.76;100.00;99675.34;4310850;33;20067;-74
2022/10/27 03:25:43;;;;;;;26.45;16.52;;;;;;;10.74;100.00;99672.91;4309610;33;20495;-76
2022/10/27 03:28:10;;;;;;;27.10;15.38;;;;;;;10.41;100.00;99631.22;4308707;33;20472;-74
2022/10/27 03:30:37;;;;;;;29.63;15.38;;;;;;;10.66;100.00;99660.59;4320882;33;20170;-74
2022/10/27 03:33:04;;;;;;;27.35;15.52;;;;;;;10.77;100.00;99667.03;4323964;33;20059;-75
2022/10/27 03:35:31;;;;;;;25.12;15.00;;;;;;;10.50;100.00;99675.56;4323996;33;20095;-76
2022/10/27 03:38:00;;;;;;;27.65;14.90;;;;;;;10.51;100.00;99666.47;4324934;33;20072;-74
2022/10/27 03:40:28;;;;;;;33.28;14.80;;;;;;;10.38;100.00;99680.13;4294256;33;20082;-74
2022/10/27 03:42:57;;;;;;;31.58;14.35;;;;;;;10.33;100.00;99682.69;4298715;33;20490;-74
2022/10/27 03:45:27;;;;;;;28.10;14.30;;;;;;;10.40;100.00;99683.41;4309103;33;20041;-74
2022/10/27 03:48:10;;;;;;;25.08;15.13;;;;;;;10.30;100.00;99688.50;4308258;33;20074;-73
2022/10/27 03:50:38;;;;;;;39.95;14.80;;;;;;;10.28;100.00;99653.75;4308892;33;20041;-74
2022/10/27 03:53:05;;;;;;;25.55;15.20;;;;;;;10.40;100.00;99688.78;4309890;33;20045;-73
2022/10/27 03:55:32;;;;;;;23.77;14.43;;;;;;;10.26;100.00;99690.84;4277554;33;20052;-75
2022/10/27 03:57:58;;;;;;;28.40;15.52;;;;;;;10.14;100.00;99663.91;4280512;33;21569;-74
2022/10/27 04:00:27;;;;;;;31.80;14.87;;;;;;;10.08;100.00;99635.22;4280450;33;20373;-74
2022/10/27 04:02:54;;;;;;;23.80;15.38;;;;;;;10.89;100.00;99702.84;4280744;33;20345;-74
2022/10/27 04:05:21;;;;;;;38.03;17.25;;;;;;;10.47;100.00;99664.47;4280456;33;20042;-76
2022/10/27 04:07:48;;;;;;;36.85;17.50;;;;;;;10.82;100.00;99653.69;4294598;33;20106;-75
2022/10/27 04:10:15;;;;;;;27.50;15.02;;;;;;;11.00;100.00;99703.09;4265219;33;20383;-75
2022/10/27 04:12:49;;;;;;;25.17;16.70;;;;;;;11.21;100.00;99707.84;4270205;33;20055;-75
2022/10/27 04:15:17;;;;;;;25.20;14.95;;;;;;;11.11;100.00;99699.56;4278165;33;20079;-75
2022/10/27 04:17:44;;;;;;;28.45;15.63;;;;;;;10.95;100.00;99700.28;4275430;33;20044;-74
2022/10/27 04:20:11;;;;;;;25.95;15.30;;;;;;;11.35;100.00;99700.31;4280625;33;20059;-74
2022/10/27 04:22:37;;;;;;;25.98;14.85;;;;;;;11.39;100.00;99706.91;4280288;33;20076;-74
2022/10/27 04:25:05;;;;;;;29.75;15.00;;;;;;;11.13;100.00;99659.72;4278301;33;20049;-76
2022/10/27 04:27:31;;;;;;;35.10;16.80;;;;;;;11.11;100.00;99674.50;4303477;33;20033;-75
2022/10/27 04:29:58;;;;;;;25.98;15.02;;;;;;;11.25;100.00;99706.34;4308424;33;20074;-75
2022/10/27 04:32:24;;;;;;;28.75;15.07;;;;;;;11.20;100.00;99708.94;4309631;33;20078;-75
2022/10/27 04:34:51;;;;;;;28.38;15.43;;;;;;;10.98;100.00;99684.47;4309053;33;20051;-75
2022/10/27 04:37:17;;;;;;;24.33;15.15;;;;;;;10.73;100.00;99666.66;4306891;33;20090;-75
2022/10/27 04:39:43;;;;;;;33.20;15.75;;;;;;;11.12;100.00;99712.00;4306858;33;20060;-77
2022/10/27 04:42:10;;;;;;;25.02;15.48;;;;;;;10.97;100.00;99682.00;4306245;33;20429;-77
2022/10/27 04:44:37;;;;;;;31.55;15.35;;;;;;;10.98;100.00;99705.22;4321038;33;20074;-77
2022/10/27 04:47:03;;;;;;;24.30;14.90;;;;;;;10.93;100.00;99680.81;4324044;33;20474;-76
2022/10/27 04:49:30;;;;;;;33.50;14.80;;;;;;;10.78;100.00;99647.09;4322389;33;20048;-78
2022/10/27 04:51:56;;;;;;;31.17;14.60;;;;;;;11.10;100.00;99708.69;4324008;33;20045;-76
2022/10/27 04:54:22;;;;;;;22.25;13.20;;;;;;;11.18;100.00;99721.81;4323096;33;20037;-76
2022/10/27 04:56:49;;;;;;;29.95;14.00;;;;;;;10.80;100.00;99709.66;4324189;33;20054;-76
2022/10/27 04:59:16;;;;;;;30.15;13.90;;;;;;;10.93;100.00;99723.94;4321543;33;20172;-75
2022/10/27 05:01:42;;;;;;;33.63;15.43;;;;;;;10.85;100.00;99696.31;4313191;33;20055;-77
2022/10/27 05:04:08;;;;;;;36.45;13.90;;;;;;;10.97;100.00;99730.50;4307750;33;20053;-76
2022/10/27 05:06:35;;;;;;;21.00;13.65;;;;;;;10.74;100.00;99686.38;4309458;33;20063;-77
2022/10/27 05:09:01;;;;;;;26.83;14.60;;;;;;;10.85;100.00;99715.16;4314500;33;20086;-76
2022/10/27 05:11:28;;;;;;;25.42;13.77;;;;;;;10.94;100.00;99741.75;4334223;33;20138;-77
2022/10/27 05:13:54;;;;;;;24.63;14.85;;;;;;;10.70;100.00;99714.81;4330773;33;20067;-77
2022/10/27 05:16:20;;;;;;;28.17;15.65;;;;;;;10.87;100.00;99734.59;4336419;33;20182;-77
2022/10/27 05:18:47;;;;;;;30.60;15.05;;;;;;;10.52;100.00;99681.53;4339366;33;20164;-76
2022/10/27 05:21:13;;;;;;;26.12;15.07;;;;;;;10.69;100.00;99734.69;4330213;33;20412;-75
2022/10/27 05:23:40;;;;;;;33.05;15.20;;;;;;;10.51;100.00;99733.78;4322798;33;20381;-75
2022/10/27 05:26:06;;;;;;;24.42;13.65;;;;;;;10.48;100.00;99734.22;4310088;33;20050;-79
2022/10/27 05:28:33;;;;;;;32.30;13.80;;;;;;;10.35;100.00;99734.44;4304385;33;20122;-75
2022/10/27 05:30:59;;;;;;;32.38;13.73;;;;;;;10.56;100.00;99734.94;4317930;33;20731;-74
2022/10/27 05:33:26;;;;;;;27.48;14.90;;;;;;;10.31;100.00;99709.00;4306565;33;20415;-74
2022/10/27 05:35:53;;;;;;;23.35;12.95;;;;;;;10.61;100.00;99737.75;4307603;33;20055;-75
2022/10/27 05:38:20;;;;;;;27.95;14.98;;;;;;;10.53;100.00;99747.81;4308499;33;20399;-77
2022/10/27 05:40:46;;;;;;;24.10;14.00;;;;;;;10.54;100.00;99741.34;4304208;33;20036;-75
2022/10/27 05:43:12;;;;;;;30.98;15.00;;;;;;;10.53;100.00;99737.03;4304926;33;20065;-74
2022/10/27 05:45:39;;;;;;;26.00;13.82;;;;;;;10.66;100.00;99721.72;4314945;33;20336;-76
2022/10/27 05:48:08;;;;;;;28.70;13.68;;;;;;;10.26;100.00;99706.16;4311820;33;20052;-76
2022/10/27 05:50:35;;;;;;;43.92;15.00;;;;;;;10.37;100.00;99708.12;4306334;33;20075;-78
2022/10/27 05:53:02;;;;;;;27.67;15.00;;;;;;;10.68;100.00;99754.63;4282784;33;20129;-76
2022/10/27 05:55:28;;;;;;;38.40;15.75;;;;;;;10.57;100.00;99723.94;4277421;33;20073;-76
2022/10/27 05:58:03;;;;;;;32.45;14.48;;;;;;;10.75;100.00;99752.62;4278415;33;20113;-77
2022/10/27 06:00:38;;;;;;;26.33;13.70;;;;;;;10.32;100.00;99703.44;4277945;33;20067;-77
2022/10/27 06:03:12;;;;;;;29.80;15.30;;;;;;;10.77;100.00;99769.41;4279281;33;20045;-76
2022/10/27 06:05:38;;;;;;;32.65;14.15;;;;;;;10.44;100.00;99718.78;4278508;33;20128;-77
2022/10/27 06:08:05;;;;;;;25.33;14.38;;;;;;;10.97;100.00;99779.00;4277993;33;20071;-76
2022/10/27 06:10:31;;;;;;;25.05;15.07;;;;;;;10.97;100.00;99781.69;4280964;33;20041;-76
2022/10/27 06:13:02;;;;;;;30.50;15.20;;;;;;;10.79;100.00;99739.53;4284975;33;20068;-76
2022/10/27 06:15:29;;;;;;;23.08;14.05;;;;;;;10.72;100.00;99739.63;4288320;33;20122;-78
2022/10/27 06:17:56;;;;;;;31.83;15.18;;;;;;;10.58;100.00;99743.59;4283883;33;20038;-76
2022/10/27 06:20:23;;;;;;;35.28;15.60;;;;;;;10.82;100.00;99782.97;4279364;33;20055;-77
2022/10/27 06:22:50;;;;;;;35.65;15.05;;;;;;;11.00;100.00;99783.94;4224017;34;20047;-73
2022/10/27 06:25:17;;;;;;;28.95;15.57;;;;;;;10.82;100.00;99760.62;4196764;34;20089;-75
2022/10/27 06:27:43;;;;;;;27.77;15.95;;;;;;;10.83;100.00;99752.31;4237602;33;20042;-76
2022/10/27 06:30:10;;;;;;;26.40;15.40;;;;;;;11.20;100.00;99788.94;4238240;33;20043;-76
2022/10/27 06:32:37;;;;;;;33.38;14.82;;;;;;;11.29;100.00;99786.75;4236975;33;20060;-76
2022/10/27 06:35:04;;;;;;;33.92;15.63;;;;;;;11.20;100.00;99797.03;4238000;33;20627;-76
2022/10/27 06:37:30;;;;;;;33.10;15.68;;;;;;;11.23;100.00;99800.09;4238893;33;20046;-75
2022/10/27 06:39:57;;;;;;;28.25;15.43;;;;;;;11.36;100.00;99806.28;4238861;33;20181;-76
2022/10/27 06:42:23;;;;;;;26.87;14.45;;;;;;;11.26;100.00;99772.69;4238329;33;20380;-77
2022/10/27 06:44:56;;;;;;;34.38;16.42;;;;;;;11.34;100.00;99817.31;4253046;33;20103;-75
2022/10/27 06:47:23;;;;;;;22.98;14.10;;;;;;;11.02;100.00;99755.69;4254022;33;20453;-75
2022/10/27 06:49:49;;;;;;;34.92;15.10;;;;;;;11.20;100.00;99822.12;4265340;33;20050;-75
2022/10/27 06:52:16;;;;;;;29.33;15.05;;;;;;;11.00;100.00;99816.28;4266234;33;20042;-76
2022/10/27 06:54:42;;;;;;;30.45;16.10;;;;;;;10.93;100.00;99824.47;4241590;33;20027;-75
2022/10/27 06:57:09;;;;;;;28.17;16.23;;;;;;;11.06;100.00;99791.09;4239054;33;20034;-75
2022/10/27 06:59:35;;;;;;;30.45;16.02;;;;;;;11.14;100.00;99828.47;4240048;33;20430;-75
2022/10/27 07:02:03;;;;;;;31.40;16.20;;;;;;;10.99;100.00;99793.91;4253199;33;20046;-75
2022/10/27 07:04:29;;;;;;;31.85;16.33;;;;;;;10.83;100.00;99795.41;4259411;33;20033;-75
2022/10/27 07:06:56;;;;;;;30.15;14.75;;;;;;;10.97;100.00;99755.56;4281953;33;20720;-75
2022/10/27 07:09:22;;;;;;;34.17;16.85;;;;;;;11.13;100.00;99782.88;4262855;33;20064;-74
2022/10/27 07:11:49;;;;;;;31.30;16.12;;;;;;;11.60;100.00;99829.50;4266506;33;20661;-75
2022/10/27 07:14:15;;;;;;;33.15;15.20;;;;;;;11.65;100.00;99828.78;4264346;33;20063;-76
2022/10/27 07:19:15;;;;;;;30.17;14.85;;;;;;;11.91;100.00;99824.72;4265142;33;20050;-75
2022/10/27 07:21:41;;;;;;;25.55;14.48;;;;;;;11.71;100.00;99833.25;4265348;33;20068;-77
2022/10/27 07:24:08;;;;;;;24.85;15.82;;;;;;;11.45;100.00;99802.19;4277791;33;20178;-77
2022/10/27 07:26:34;;;;;;;29.52;16.60;;;;;;;11.93;100.00;99849.63;4288451;33;20056;-77
2022/10/27 07:29:00;;;;;;;31.87;16.05;;;;;;;11.96;100.00;99802.47;4291277;33;20041;-75
2022/10/27 07:31:27;;;;;;;34.95;16.37;;;;;;;12.39;100.00;99848.91;4292355;33;20065;-76
2022/10/27 07:33:53;;;;;;;33.95;14.60;;;;;;;12.08;100.00;99813.22;4249194;33;20053;-76
2022/10/27 07:36:20;;;;;;;36.83;16.67;;;;;;;11.73;100.00;99814.12;4249599;33;20087;-76
2022/10/27 07:38:46;;;;;;;35.08;16.20;;;;;;;12.15;100.00;99868.69;4237050;33;20068;-75
2022/10/27 07:41:13;;;;;;;27.15;15.63;;;;;;;11.60;100.00;99796.31;4259949;33;20190;-75
2022/10/27 07:43:39;;;;;;;39.55;15.43;;;;;;;11.99;100.00;99837.88;4274401;33;20085;-76
2022/10/27 07:46:06;;;;;;;30.05;15.82;;;;;;;12.35;100.00;99870.19;4280133;33;20045;-75
2022/10/27 07:48:32;;;;;;;28.42;16.08;;;;;;;12.31;100.00;99860.91;4279164;33;20046;-76
2022/10/27 07:50:59;;;;;;;28.40;14.07;;;;;;;12.30;100.00;99868.19;4288125;33;20366;-75
2022/10/27 07:53:25;;;;;;;35.78;14.48;;;;;;;12.07;100.00;99833.97;4295606;33;20025;-75
2022/10/27 07:55:52;;;;;;;27.10;14.25;;;;;;;12.34;100.00;99842.34;4294050;33;20045;-75
2022/10/27 07:58:18;;;;;;;37.42;16.45;;;;;;;12.08;100.00;99837.53;4294613;33;20041;-79
2022/10/27 08:00:47;;;;;;;27.67;17.00;;;;;;;12.45;100.00;99880.34;4263903;33;20042;-77
2022/10/27 08:03:21;;;;;;;31.30;14.65;;;;;;;12.30;100.00;99843.91;4246016;33;20037;-77
2022/10/27 08:05:48;;;;;;;35.33;14.57;;;;;;;12.75;100.00;99879.25;4248739;33;20464;-77
2022/10/27 08:08:15;;;;;;;30.98;13.70;;;;;;;12.35;100.00;99887.19;4236911;33;20064;-78
2022/10/27 08:10:43;;;;;;;25.58;13.45;;;;;;;12.66;100.00;99882.34;4220590;34;20083;-79
2022/10/27 08:13:10;;;;;;;38.08;13.57;;;;;;;12.94;100.00;99883.41;4247304;33;20063;-78
2022/10/27 08:15:39;;;;;;;25.75;12.77;;;;;;;12.60;100.00;99860.91;4252261;33;20176;-78
2022/10/27 08:18:05;;;;;;;27.30;14.65;;;;;;;12.80;100.00;99895.59;4234362;33;20064;-78
2022/10/27 08:20:39;;;;;;;34.42;14.65;;;;;;;13.18;100.00;99877.81;4233536;33;20090;-80
2022/10/27 08:23:10;;;;;;;36.25;13.88;;;;;;;12.71;100.00;99860.81;4195268;34;20952;-79
2022/10/27 08:25:37;;;;;;;25.30;12.05;;;;;;;12.99;100.00;99902.41;4195199;34;20419;-78
2022/10/27 08:28:04;;;;;;;25.62;12.32;;;;;;;13.11;100.00;99904.22;4195086;34;20831;-78
2022/10/27 08:30:32;;;;;;;25.45;13.32;;;;;;;13.08;100.00;99900.94;4193572;34;20071;-78
2022/10/27 08:33:07;;;;;;;27.77;12.70;;;;;;;13.15;100.00;99900.78;4238229;33;20054;-79
2022/10/27 08:35:34;;;;;;;28.90;12.75;;;;;;;13.24;100.00;99902.00;4236751;33;20115;-79
2022/10/27 08:38:04;;;;;;;30.42;12.85;;;;;;;12.93;100.00;99870.94;4237520;33;20047;-79
2022/10/27 08:40:42;;;;;;;21.65;12.25;;;;;;;13.47;100.00;99864.25;4249209;33;20079;-79
2022/10/27 08:43:26;;;;;;;24.27;12.18;;;;;;;13.34;100.00;99859.97;4279167;33;20045;-79
2022/10/27 08:46:00;;;;;;;29.95;13.07;;;;;;;13.88;100.00;99899.97;4264132;33;20041;-80
2022/10/27 08:48:28;;;;;;;30.02;13.00;;;;;;;13.94;100.00;99880.84;4282521;33;20070;-77
2022/10/27 08:50:54;;;;;;;26.77;12.23;;;;;;;13.81;100.00;99868.47;4293906;33;20067;-77
2022/10/27 08:53:31;;;;;;;23.42;13.00;;;;;;;14.09;100.00;99891.06;4298173;33;20040;-78
2022/10/27 08:56:05;;;;;;;35.25;12.93;;;;;;;14.22;100.00;99864.66;4307674;33;20370;-79
2022/10/27 08:58:43;;;;;;;25.15;12.20;;;;;;;14.29;100.00;99897.78;4308341;33;20084;-79
2022/10/27 09:01:28;;;;;;;20.55;12.45;;;;;;;14.15;100.00;99881.94;4294623;33;20057;-77
2022/10/27 09:04:25;;;;;;;24.33;12.90;;;;;;;14.14;100.00;99842.38;4264257;33;20055;-77
2022/10/27 09:07:12;;;;;;;26.25;13.38;;;;;;;14.51;100.00;99887.75;4266433;33;20059;-77
2022/10/27 09:09:53;;;;;;;31.00;13.20;;;;;;;13.93;100.00;99881.13;4265836;33;20026;-76
2022/10/27 09:12:51;;;;;;;30.58;11.88;;;;;;;14.43;100.00;99893.63;4265305;33;20041;-77
2022/10/27 09:15:37;;;;;;;24.25;12.88;;;;;;;14.34;100.00;99895.13;4265962;33;20087;-76
2022/10/27 09:18:07;;;;;;;37.75;13.05;;;;;;;14.50;100.00;99856.31;4275749;33;20053;-78
2022/10/27 09:20:47;;;;;;;28.50;13.85;;;;;;;14.48;100.00;99858.44;4280208;33;20826;-78
2022/10/27 09:23:21;;;;;;;24.40;11.70;;;;;;;14.39;100.00;99854.56;4278667;33;20046;-78
2022/10/27 09:25:51;;;;;;;27.85;12.63;;;;;;;14.68;100.00;99905.84;4264781;33;20372;-78
2022/10/27 09:28:28;;;;;;;33.58;13.62;;;;;;;14.95;100.00;99875.16;4266846;33;20050;-78
2022/10/27 09:30:57;;;;;;;31.33;11.93;;;;;;;14.80;100.00;99876.66;4267956;33;20134;-79
2022/10/27 09:33:29;;;;;;;24.23;12.50;;;;;;;15.16;100.00;99917.69;4268119;33;20072;-76
2022/10/27 09:35:56;;;;;;;23.85;12.02;;;;;;;15.34;100.00;99911.03;4265425;33;20115;-79
2022/10/27 09:38:24;;;;;;;19.87;10.82;;;;;;;15.10;100.00;99913.28;4268708;33;20960;-77
2022/10/27 09:40:51;;;;;;;30.23;12.00;;;;;;;14.76;100.00;99875.56;4272189;33;20114;-77
2022/10/27 09:43:21;;;;;;;24.23;12.05;;;;;;;14.92;100.00;99878.41;4281072;33;20337;-78
2022/10/27 09:45:55;;;;;;;23.50;11.63;;;;;;;15.23;100.00;99866.72;4281937;33;20060;-75
2022/10/27 09:48:25;;;;;;;19.73;11.10;;;;;;;15.75;100.00;99908.59;4253269;33;20058;-77
2022/10/27 09:51:01;;;;;;;19.67;11.25;;;;;;;15.52;100.00;99915.22;4224685;33;20026;-78
2022/10/27 09:53:54;;;;;;;26.42;11.30;;;;;;;15.82;100.00;99919.25;4224493;33;20388;-79
2022/10/27 09:56:29;;;;;;;25.92;12.27;;;;;;;15.95;100.00;99912.53;4233654;33;20176;-79
2022/10/27 09:59:01;;;;;;;23.05;10.52;;;;;;;16.15;100.00;99909.13;4253193;33;20046;-77
2022/10/27 10:01:44;;;;;;;20.57;11.20;;;;;;;15.65;100.00;99880.56;4241896;33;20066;-76
2022/10/27 10:04:22;;;;;;;22.83;10.73;;;;;;;15.85;100.00;99869.84;4257802;33;20042;-76
2022/10/27 10:06:57;;;;;;;28.27;11.07;;;;;;;16.59;100.00;99908.69;4266071;33;20030;-77
2022/10/27 10:09:30;;;;;;;22.27;12.07;;;;;;;15.98;100.00;99873.97;4266956;33;20440;-76
2022/10/27 10:12:21;;;;;;;24.25;11.35;;;;;;;16.53;100.00;99891.56;4267388;33;20453;-76
2022/10/27 10:14:48;;;;;;;20.07;10.33;;;;;;;16.60;100.00;99918.50;4267007;33;20061;-77
2022/10/27 10:17:20;;;;;;;22.05;10.90;;;;;;;16.76;100.00;99910.37;4267168;33;20034;-76
2022/10/27 10:19:47;;;;;;;24.73;11.73;;;;;;;16.89;100.00;99918.84;4268196;33;20375;-75
2022/10/27 10:22:29;;;;;;;27.65;10.65;;;;;;;16.65;100.00;99876.91;4301774;33;20039;-80
2022/10/27 10:24:59;;;;;;;25.98;11.15;;;;;;;16.81;100.00;99913.09;4328194;33;20036;-77
2022/10/27 10:27:34;;;;;;;23.70;12.10;;;;;;;16.74;100.00;99917.97;4356112;32;20077;-76
2022/10/27 10:30:03;;;;;;;22.02;11.15;;;;;;;16.83;100.00;99878.28;4355316;32;20083;-78
2022/10/27 10:32:34;;;;;;;24.80;11.18;;;;;;;16.75;100.00;99920.44;4357650;32;20429;-76
2022/10/27 10:35:22;;;;;;;18.55;10.20;;;;;;;17.18;100.00;99882.16;4356426;32;20044;-77
2022/10/27 10:37:48;;;;;;;19.85;9.68;;;;;;;17.66;100.00;99918.03;4353810;32;20047;-81
2022/10/27 10:40:18;;;;;;;22.95;10.25;;;;;;;17.60;100.00;99913.69;4357721;32;20052;-78
2022/10/27 10:43:00;;;;;;;23.30;10.80;;;;;;;17.83;100.00;99916.91;4356665;32;20027;-79
2022/10/27 10:45:29;;;;;;;21.37;10.60;;;;;;;17.35;100.00;99907.19;4356214;32;20048;-80
2022/10/27 10:48:13;;;;;;;22.85;10.13;;;;;;;17.29;100.00;99900.09;4323153;33;20050;-78
2022/10/27 10:50:49;;;;;;;15.88;9.27;;;;;;;17.97;100.00;99890.75;4325275;33;20080;-77
2022/10/27 10:53:27;;;;;;;15.00;9.90;;;;;;;18.17;100.00;99911.66;4322611;33;20168;-83
2022/10/27 10:55:56;;;;;;;20.77;9.50;;;;;;;18.38;100.00;99890.59;4310810;33;20064;-78
2022/10/27 10:58:26;;;;;;;29.17;9.68;;;;;;;18.34;100.00;99859.53;4308939;33;20441;-78
2022/10/27 11:00:56;;;;;;;15.15;8.73;;;;;;;18.49;100.00;99911.25;4310728;33;20054;-78
2022/10/27 11:03:26;;;;;;;20.80;10.02;;;;;;;18.82;100.00;99883.50;4310230;33;20045;-79
2022/10/27 11:05:59;;;;;;;20.48;9.00;;;;;;;18.82;100.00;99887.03;4309612;33;20469;-79
2022/10/27 11:08:35;;;;;;;19.55;9.45;;;;;;;18.79;100.00;99890.31;4310667;33;20123;-80
2022/10/27 11:11:05;;;;;;;18.20;8.88;;;;;;;19.46;100.00;99919.03;4309002;33;20045;-79
2022/10/27 11:13:39;;;;;;;15.63;9.10;;;;;;;18.93;100.00;99895.19;4310333;33;20045;-78
2022/10/27 11:16:09;;;;;;;17.05;8.23;;;;;;;19.64;100.00;99914.78;4310927;33;20070;-78
2022/10/27 11:18:47;;;;;;;14.07;7.75;;;;;;;19.40;100.00;99888.22;4311954;33;20091;-79
2022/10/27 11:21:38;;;;;;;16.98;8.60;;;;;;;19.49;100.00;99875.59;4325329;33;20036;-79
2022/10/27 11:24:20;;;;;;;14.43;7.60;;;;;;;19.57;100.00;99909.66;4324364;33;20074;-80
2022/10/27 11:27:00;;;;;;;16.30;8.30;;;;;;;18.79;100.00;99868.50;4328217;33;20053;-78